Data for 09/12/2017

Time Sea-Level Adjusted Pressure Absolute Pressure Temperature Relative Humidity Dew Point   
(mb) (inHg) (mb) (inHg) (C) (F) (%) (C) (F)
00:05 1022 30.18 851 25.13 16.9 62.4 30 -0.6 31
00:10 1022 30.18 851 25.13 16.4 61.5 31 -0.5 31.1
00:15 1022 30.18 851 25.13 15.8 60.5 33 -0.4 31.3
00:20 1022 30.18 851 25.13 15.5 59.9 35 0.2 32.4
00:25 1022 30.18 851 25.13 14.9 58.8 35 -0.4 31.2
00:30 1022 30.18 851 25.13 15 59.1 36 0.1 32.1
00:35 1022 30.18 851 25.13 14.8 58.6 36 -0.1 31.9
00:40 1022 30.18 851 25.13 15 59.1 31 -2 28.4
00:45 1022 30.18 851 25.13 15.5 59.9 33 -0.5 31
00:50 1022 30.18 851 25.13 15.2 59.4 34 -0.6 31
00:55 1022 30.18 851 25.13 15 59 34 -0.5 31.1
01:00 1022 30.18 851 25.13 14.6 58.3 36 -0.3 31.4
01:05 1022 30.18 851 25.13 14.4 57.9 36 -0.3 31.5
01:10 1022 30.18 851 25.13 14.4 57.9 36 -0.6 31
01:15 1022 30.18 851 25.13 14.4 58 36 -0.5 31.1
01:20 1022 30.18 851 25.13 14.4 57.8 35 -0.6 30.9
01:25 1022 30.18 851 25.13 14.3 57.7 38 0.2 32.4
01:30 1022 30.18 851 25.13 13.6 56.6 41 0.6 33
01:35 1022 30.18 851 25.13 13.2 55.8 41 0.3 32.6
01:40 1022 30.18 851 25.13 13.4 56.2 39 -0.2 31.6
01:45 1022 30.18 851 25.13 14.1 57.3 34 -1.4 29.4
01:50 1022 30.18 851 25.13 14.8 58.6 33 -1.4 29.5
01:55 1022 30.18 851 25.13 15 59 32 -1.3 29.7
02:00 1022 30.18 851 25.13 14.8 58.7 33 -1.4 29.5
02:05 1022 30.18 851 25.13 14.9 58.9 32 -1.4 29.4
02:10 1022 30.18 851 25.13 15.1 59.2 31 -1.6 29.2
02:15 1022 30.18 851 25.13 15.4 59.6 31 -1.4 29.5
02:20 1022 30.18 851 25.13 15.4 59.6 34 -0.4 31.3
02:25 1022 30.18 851 25.13 15.2 59.3 33 -1.1 30.1
02:30 1022 30.18 851 25.13 15.1 59.2 33 -1.1 30
02:35 1022 30.18 851 25.13 15.2 59.3 31 -1.8 28.8
02:40 1022 30.18 851 25.13 15.6 60 32 -1.2 29.9
02:45 1022 30.18 851 25.13 15.6 60.1 30 -1.7 29
02:50 1022 30.18 851 25.13 16 60.7 31 -1.2 29.9
02:55 1022 30.18 851 25.13 16.1 60.9 31 -0.8 30.6
03:00 1022 30.18 851 25.13 15.9 60.6 31 -1.1 30.1
03:05 1022 30.18 851 25.13 15.7 60.2 31 -1.2 29.8
03:10 1022 30.18 851 25.13 15.7 60.2 31 -1.2 29.8
03:15 1022 30.18 851 25.13 15.7 60.2 31 -1.2 29.8
03:20 1022 30.18 851 25.13 15.7 60.3 31 -1.4 29.6
03:25 1022 30.18 851 25.13 15.8 60.4 31 -1.1 30.1
03:30 1022 30.18 851 25.13 15.7 60.2 31 -1.3 29.7
03:35 1022 30.18 851 25.13 15.9 60.6 31 -1.2 29.9
03:40 1022 30.18 851 25.13 15.8 60.5 31 -1.2 29.8
03:45 1022 30.18 851 25.13 15.9 60.6 31 -1 30.3
03:50 1022 30.18 851 25.13 15.6 60.1 32 -0.8 30.6
03:55 1022 30.18 851 25.13 15.1 59.2 36 0.1 32.2
04:00 1022 30.18 851 25.13 14.7 58.4 35 -0.5 31.2
04:05 1022 30.18 851 25.13 14.1 57.4 39 0.3 32.5
04:10 1022 30.18 851 25.13 13.5 56.4 43 1.2 34.1
04:15 1022 30.18 851 25.13 13.2 55.8 39 -0.2 31.6
04:20 1022 30.18 851 25.13 13.7 56.7 36 -1.1 30
04:25 1022 30.18 851 25.13 14.1 57.4 37 -0.3 31.5
04:30 1022 30.18 851 25.13 14 57.2 37 -0.5 31.1
04:35 1022 30.18 851 25.13 14.5 58.2 35 -0.8 30.5
04:40 1022 30.18 851 25.13 14.7 58.5 34 -0.9 30.5
04:45 1022 30.18 851 25.13 15.1 59.3 32 -1.3 29.6
04:50 1022 30.18 851 25.13 15.6 60.1 32 -1 30.3
04:55 1022 30.18 851 25.13 15.3 59.5 34 -0.5 31.1
05:00 1022 30.18 851 25.13 14.7 58.5 34 -0.8 30.5
05:05 1022 30.18 851 25.13 14.8 58.6 34 -0.8 30.6
05:10 1022 30.18 851 25.13 14.5 58 36 -0.4 31.4
05:15 1022 30.18 851 25.13 14.1 57.4 38 0.1 32.1
05:20 1022 30.18 851 25.13 13.5 56.3 41 0.5 32.9
05:25 1022 30.18 851 25.13 13.2 55.8 42 0.5 33
05:30 1022 30.18 851 25.13 13.2 55.8 41 0.5 32.8
05:35 1022 30.18 851 25.13 13.1 55.6 41 0.1 32.3
05:40 1022 30.18 851 25.13 13.3 55.9 38 -0.7 30.7
05:45 1022 30.18 851 25.13 13.8 56.9 37 -0.7 30.8
05:50 1022 30.18 851 25.13 13.9 57 39 0.4 32.7
05:55 1022 30.18 851 25.13 13.5 56.2 40 0.3 32.5
06:00 1022 30.18 851 25.13 13.6 56.5 39 -0 32
06:05 1022 30.18 851 25.13 14.3 57.7 37 -0.2 31.6
06:10 1022 30.18 851 25.13 14.5 58 36 -0.2 31.6
06:15 1022 30.18 851 25.13 14.4 58 37 -0 32
06:20 1022 30.18 851 25.13 14.2 57.6 38 0.2 32.4
06:25 1022 30.18 851 25.13 14.5 58.1 37 0.3 32.5
06:30 1022 30.18 851 25.13 14.2 57.6 41 1.2 34.1
06:35 1022 30.18 851 25.13 13.6 56.4 42 1.1 34
06:40 1022 30.18 851 25.13 13.2 55.7 44 1.1 34
06:45 1022 30.18 851 25.13 13.1 55.6 43 0.8 33.4
06:50 1022 30.18 851 25.13 13.5 56.2 41 0.6 33
06:55 1022 30.18 851 25.13 14 57.2 40 0.7 33.3
07:00 1022 30.18 851 25.13 14.4 57.9 39 0.8 33.4
07:05 1022 30.18 851 25.13 14.4 58 40 1.3 34.3
07:10 1022 30.18 851 25.13 14.5 58 41 1.3 34.4
07:15 1022 30.18 851 25.13 14.4 58 42 1.7 35
07:20 1022 30.18 851 25.13 14.5 58.2 41 1.4 34.6
07:25 1022 30.18 851 25.13 14.9 58.8 39 1.1 34
07:30 1022 30.18 851 25.13 15.2 59.4 39 1.5 34.8
07:35 1022 30.18 851 25.13 15.6 60 37 1.1 34
07:40 1022 30.18 851 25.13 15.8 60.5 37 1.3 34.3
07:45 1022 30.18 851 25.13 16.4 61.4 35 0.9 33.7
07:50 1022 30.18 851 25.13 16.7 62.1 33 0.5 33
07:55 1022 30.18 851 25.13 17.1 62.7 33 0.9 33.6
08:00 1022 30.18 851 25.13 17.5 63.5 34 1.7 35.1
08:05 1022 30.18 851 25.13 17.8 64 33 1.4 34.5
08:10 1022 30.18 851 25.13 18.1 64.6 32 1.5 34.6
08:15 1022 30.18 851 25.13 18.7 65.6 32 1.6 34.8
08:20 1022 30.18 851 25.13 19.4 66.8 31 1.9 35.5
08:25 1022 30.18 851 25.13 19.6 67.4 31 2.2 35.9
08:30 1022 30.18 851 25.13 20 68 30 1.9 35.3
08:35 1022 30.18 851 25.13 20.2 68.4 30 2.1 35.7
08:40 1022 30.18 851 25.13 20.3 68.6 30 2.3 36.1
08:45 1022 30.18 851 25.13 20.4 68.7 30 2.2 36
08:50 1022 30.18 851 25.13 20.4 68.8 31 2.9 37.3
08:55 1022 30.18 851 25.13 20.6 69.2 29 2.3 36.2
09:00 1022 30.18 851 25.13 20.8 69.5 30 3 37.3
09:05 1022 30.18 851 25.13 20.3 68.5 31 2.8 37.1
09:10 1022 30.18 851 25.13 20.3 68.6 30 2.5 36.5
09:15 1022 30.18 851 25.13 20 68 29 1.6 34.8
09:20 1022 30.18 851 25.13 19.8 67.7 28 0.9 33.6
09:25 1022 30.18 851 25.13 20.2 68.4 28 1.3 34.3
09:30 1022 30.18 851 25.13 21.2 70.2 25 0.4 32.7
09:35 1022 30.18 851 25.13 21.2 70.2 28 2.1 35.9
09:40 1022 30.18 851 25.13 20.5 69 29 2 35.7
09:45 1022 30.18 851 25.13 21.1 70 27 1.6 34.9
09:50 1022 30.18 851 25.13 22.3 72.1 25 1.5 34.8
09:55 1021 30.15 851 25.13 22.1 71.8 26 1.9 35.4
10:00 1021 30.15 851 25.13 22.1 71.8 26 1.7 35
10:05 1021 30.15 851 25.13 21.9 71.3 27 2.3 36.2
10:10 1021 30.15 850 25.1 22.4 72.2 25 1.5 34.6
10:15 1021 30.15 850 25.1 23.4 74.2 24 1.9 35.4
10:20 1021 30.15 850 25.1 22.8 73 25 1.9 35.4
10:25 1021 30.15 850 25.1 23.8 74.8 22 1 33.8
10:30 1021 30.15 850 25.1 24.7 76.5 22 2 35.6
10:35 1021 30.15 850 25.1 24.8 76.6 23 2.8 37
10:40 1021 30.15 850 25.1 24.4 75.9 22 1.4 34.6
10:45 1021 30.15 850 25.1 24.3 75.8 23 2 35.6
10:50 1021 30.15 850 25.1 23.8 74.9 24 2.4 36.3
10:55 1021 30.15 850 25.1 24 75.1 24 2.5 36.4
11:00 1021 30.15 850 25.1 23.9 74.9 23 1.9 35.4
11:05 1021 30.15 850 25.1 24.5 76.2 23 2.2 35.9
11:10 1020 30.12 850 25.1 24.7 76.4 22 1.9 35.4
11:15 1020 30.12 850 25.1 25.1 77.2 22 2.2 36
11:20 1020 30.12 850 25.1 25.5 77.9 21 1.6 34.9
11:25 1020 30.12 850 25.1 25.5 77.8 22 2.7 36.8
11:30 1020 30.12 849 25.07 25.5 78 21 1.6 34.8
11:35 1020 30.12 849 25.07 26.3 79.4 19 1.5 34.7
11:40 1020 30.12 849 25.07 26.8 80.2 19 1.3 34.3
11:45 1020 30.12 849 25.07 26.7 80 19 1.4 34.5
11:50 1020 30.12 849 25.07 26.9 80.5 18 1.1 34
11:55 1020 30.12 849 25.07 27.1 80.9 19 1.5 34.7
12:00 1020 30.12 849 25.07 27.3 81.1 18 0.9 33.7
12:05 1020 30.12 849 25.07 27.3 81.1 18 1.4 34.5
12:10 1020 30.12 849 25.07 27.6 81.6 18 1.6 34.8
12:15 1020 30.12 849 25.07 27.7 81.8 18 1.4 34.6
12:20 1020 30.12 849 25.07 28 82.5 18 1.8 35.2
12:25 1020 30.12 849 25.07 28.5 83.3 16 0.8 33.5
12:30 1020 30.12 849 25.07 28.5 83.2 18 2.2 36
12:35 1019 30.09 849 25.07 28.5 83.2 17 1.8 35.2
12:40 1019 30.09 849 25.07 28.2 82.8 17 1.4 34.5
12:45 1019 30.09 848 25.04 28.1 82.6 18 1.9 35.5
12:50 1019 30.09 848 25.04 28.5 83.3 17 1.1 34.1
12:55 1019 30.09 848 25.04 28.7 83.6 18 2 35.5
13:00 1019 30.09 848 25.04 28.8 83.9 17 1.9 35.5
13:05 1019 30.09 848 25.04 29.3 84.7 15 0.7 33.2
13:10 1019 30.09 848 25.04 29.4 84.8 16 0.9 33.6
13:15 1019 30.09 848 25.04 29 84.1 17 2 35.6
13:20 1019 30.09 848 25.04 29 84.1 18 2.3 36.2
13:25 1019 30.09 848 25.04 28.5 83.4 17 1.8 35.2
13:30 1019 30.09 848 25.04 28.4 83.1 16 0.2 32.4
13:35 1019 30.09 848 25.04 29 84.1 16 0.7 33.2
13:40 1019 30.09 848 25.04 29 84.3 17 1.5 34.8
13:45 1018 30.06 848 25.04 29.4 85 15 0.8 33.5
13:50 1018 30.06 848 25.04 29.7 85.5 15 0.9 33.5
13:55 1018 30.06 848 25.04 29.6 85.2 15 0.6 33
14:00 1018 30.06 848 25.04 29.6 85.2 15 0.7 33.3
14:05 1018 30.06 848 25.04 29.8 85.6 14 0.1 32.3
14:10 1018 30.06 847 25.01 30.2 86.3 14 0.2 32.4
14:15 1018 30.06 847 25.01 30.9 87.6 14 0.7 33.3
14:20 1018 30.06 847 25.01 30.4 86.7 15 1.1 34
14:25 1018 30.06 847 25.01 30.7 87.3 14 0.1 32.2
14:30 1018 30.06 847 25.01 29.9 85.9 15 1.3 34.3
14:35 1018 30.06 847 25.01 29.2 84.5 15 0.1 32.2
14:40 1018 30.06 847 25.01 29.5 85 15 0 32.1
14:45 1018 30.06 847 25.01 29.9 85.9 14 -0.1 31.8
14:50 1018 30.06 847 25.01 30.8 87.5 14 0.4 32.7
14:55 1018 30.06 847 25.01 29.8 85.7 15 0.4 32.7
15:00 1018 30.06 847 25.01 29.6 85.2 14 -0 32
15:05 1018 30.06 847 25.01 29.5 85.1 14 -0.2 31.6
15:10 1017 30.03 847 25.01 30.3 86.5 14 -0 32
15:15 1017 30.03 847 25.01 30.6 87.1 14 -0 32
15:20 1017 30.03 847 25.01 30.8 87.5 13 0.1 32.2
15:25 1017 30.03 846 24.98 30.7 87.3 14 0.4 32.7
15:30 1017 30.03 846 24.98 30.7 87.2 14 0.9 33.6
15:35 1017 30.03 846 24.98 30.5 86.9 15 1 33.7
15:40 1017 30.03 846 24.98 30.2 86.4 15 1 33.8
15:45 1017 30.03 846 24.98 30.5 86.8 14 0.7 33.3
15:50 1017 30.03 846 24.98 30.2 86.3 15 0.7 33.2
15:55 1017 30.03 846 24.98 29.9 85.7 15 0.5 33
16:00 1017 30.03 846 24.98 30 86.1 15 0.5 33
16:05 1017 30.03 846 24.98 29.8 85.7 15 1.2 34.1
16:10 1017 30.03 846 24.98 29.7 85.5 15 1 33.8
16:15 1017 30.03 846 24.98 29.6 85.3 15 0.8 33.4
16:20 1017 30.03 846 24.98 29.2 84.6 15 0.4 32.7
16:25 1017 30.03 846 24.98 29.2 84.6 15 0.3 32.5
16:30 1017 30.03 846 24.98 29.7 85.4 17 2.5 36.4
16:35 1017 30.03 846 24.98 29 84.3 15 0.4 32.7
16:40 1017 30.03 846 24.98 28.5 83.3 17 1.8 35.2
16:45 1017 30.03 846 24.98 28.8 83.8 16 1 33.9
16:50 1017 30.03 846 24.98 28.7 83.7 18 2 35.7
16:55 1017 30.03 846 24.98 28.2 82.8 18 2.1 35.8
17:00 1017 30.03 846 24.98 28.2 82.7 18 2.1 35.9
17:05 1017 30.03 846 24.98 28.2 82.7 19 2.7 36.9
17:10 1017 30.03 846 24.98 28.3 82.9 18 2.3 36.1
17:15 1017 30.03 846 24.98 28.2 82.8 19 2.6 36.6
17:20 1017 30.03 846 24.98 28 82.4 19 2.3 36.2
17:25 1017 30.03 846 24.98 27.7 81.9 20 2.7 36.8
17:30 1016 30 846 24.98 27.6 81.6 20 2.6 36.7
17:35 1016 30 846 24.98 27.2 80.9 21 3 37.3
17:40 1016 30 846 24.98 26.9 80.4 21 2.7 36.9
17:45 1016 30 846 24.98 26.7 80 21 3.1 37.6
17:50 1016 30 846 24.98 26.4 79.4 22 3.1 37.6
17:55 1016 30 845 24.95 26.1 79 22 3.2 37.8
18:00 1016 30 845 24.95 25.9 78.7 23 3.4 38.1
18:05 1016 30 845 24.95 25.7 78.3 24 3.6 38.5
18:10 1016 30 846 24.98 25.4 77.8 24 3.6 38.5
18:15 1016 30 846 24.98 25.1 77.2 24 3.5 38.3
18:20 1016 30 846 24.98 24.9 76.9 24 3 37.4
18:25 1016 30 846 24.98 25.1 77.1 24 3 37.5
18:30 1016 30 845 24.95 24.9 76.7 24 3.4 38.2
18:35 1016 30 845 24.95 24.5 76.1 25 3.3 38
18:40 1016 30 845 24.95 24.4 75.9 25 3.1 37.5
18:45 1016 30 845 24.95 24.3 75.8 24 3 37.3
18:50 1016 30 845 24.95 24.1 75.5 24 2.7 36.9
18:55 1016 30 845 24.95 24 75.2 25 3 37.4
19:00 1016 30 845 24.95 23.9 74.9 25 2.9 37.1
19:05 1016 30 845 24.95 23.8 74.8 25 2.9 37.2
19:10 1016 30 846 24.98 23.8 74.8 25 2.8 37.1
19:15 1016 30 846 24.98 23.7 74.7 25 2.9 37.2
19:20 1016 30 846 24.98 23.6 74.5 25 2.8 37
19:25 1016 30 846 24.98 23.5 74.3 25 2.8 37
19:30 1016 30 846 24.98 23.5 74.2 26 2.8 37.1
19:35 1016 30 846 24.98 23.4 74 26 2.9 37.2
19:40 1016 30 846 24.98 23.2 73.7 26 3 37.5
19:45 1016 30 846 24.98 23 73.3 27 3 37.5
19:50 1016 30 846 24.98 22.7 72.9 27 3.2 37.7
19:55 1016 30 846 24.98 22.5 72.5 28 3.4 38
20:00 1016 30 846 24.98 22.3 72.1 29 3.4 38.2
20:05 1016 30 846 24.98 22 71.6 29 3.1 37.7
20:10 1016 30 846 24.98 21.9 71.3 29 3.3 37.9
20:15 1016 30 846 24.98 21.7 71 30 3.3 38
20:20 1016 30 846 24.98 21.4 70.5 30 3.3 37.9
20:25 1016 30 846 24.98 21.4 70.4 30 3.3 37.9
20:30 1016 30 846 24.98 21.4 70.5 30 3.1 37.5
20:35 1016 30 846 24.98 21.4 70.6 30 3.1 37.7
20:40 1016 30 846 24.98 21.4 70.4 30 3.2 37.7
20:45 1016 30 846 24.98 21.5 70.7 29 2.9 37.2
20:50 1016 30 846 24.98 21.7 71 29 3.1 37.6
20:55 1016 30 846 24.98 21.6 70.8 29 3.1 37.6
21:00 1016 30 846 24.98 21.4 70.5 29 3 37.5
21:05 1016 30 846 24.98 21.2 70.2 30 3.3 38
21:10 1016 30 846 24.98 21 69.9 31 3.2 37.8
21:15 1016 30 846 24.98 20.9 69.7 31 3.4 38.1
21:20 1016 30 846 24.98 20.7 69.3 31 3 37.5
21:25 1016 30 846 24.98 20.6 69.1 30 2.8 37.1
21:30 1016 30 846 24.98 20.7 69.3 30 2.8 37
21:35 1016 30 846 24.98 20.8 69.5 30 2.8 37
21:40 1016 30 846 24.98 20.8 69.5 30 2.9 37.1
21:45 1016 30 846 24.98 20.6 69 31 3.2 37.8
21:50 1016 30 846 24.98 20.2 68.4 32 3.1 37.5
21:55 1016 30 845 24.95 20.2 68.3 32 3 37.5
22:00 1016 30 845 24.95 20.3 68.5 31 2.8 37.1
22:05 1016 30 845 24.95 20.2 68.4 32 3.2 37.8
22:10 1016 30 846 24.98 20.1 68.3 31 2.7 36.9
22:15 1016 30 845 24.95 20.3 68.6 32 3.1 37.6
22:20 1016 30 846 24.98 20.2 68.4 32 3.2 37.7
22:25 1016 30 846 24.98 20.3 68.6 31 2.8 37.1
22:30 1016 30 846 24.98 20.4 68.8 32 3.2 37.7
22:35 1016 30 846 24.98 20.5 68.9 35 4.5 40.1
22:40 1017 30.03 846 24.98 20.4 68.8 33 3.7 38.6
22:45 1016 30 846 24.98 20.2 68.3 33 3.5 38.3
22:50 1017 30.03 846 24.98 20 68 40 6.2 43.1
22:55 1017 30.03 846 24.98 19.7 67.5 36 4.3 39.7
23:00 1016 30 846 24.98 19.3 66.7 36 4.1 39.4
23:05 1016 30 846 24.98 19.2 66.5 34 3 37.4
23:10 1017 30.03 846 24.98 19.2 66.5 36 3.9 39.1
23:15 1017 30.03 846 24.98 19 66.2 35 3.1 37.6
23:20 1017 30.03 846 24.98 19 66.1 36 3.6 38.4
23:25 1016 30 846 24.98 18.7 65.6 37 3.8 38.8
23:30 1016 30 846 24.98 18.4 65 39 4.1 39.4
23:35 1016 30 846 24.98 18 64.4 42 5.1 41.1
23:40 1016 30 845 24.95 17.8 64 41 4.4 39.9
23:45 1016 30 845 24.95 17.7 63.8 41 4.5 40.1
23:50 1016 30 845 24.95 18.1 64.6 34 2.1 35.8
23:55 1016 30 845 24.95 19.1 66.4 31 1.9 35.4
24:00 1016 30 846 24.98 19.2 66.6 32 2.3 36.2